sensor_id;sensor_type;location;lat;lon;timestamp;pressure;altitude;pressure_sealevel;temperature;humidity
71573;BME280;59408;51.032;9.410;2023-07-29T00:00:00;98411.25;;;16.28;100.00
71573;BME280;59408;51.032;9.410;2023-07-29T00:02:27;98407.72;;;16.31;100.00
71573;BME280;59408;51.032;9.410;2023-07-29T00:04:53;98403.41;;;16.33;100.00
71573;BME280;59408;51.032;9.410;2023-07-29T00:07:21;98406.53;;;16.35;100.00
71573;BME280;59408;51.032;9.410;2023-07-29T00:09:48;98412.06;;;16.35;100.00
71573;BME280;59408;51.032;9.410;2023-07-29T00:12:15;98402.63;;;16.36;100.00
71573;BME280;59408;51.032;9.410;2023-07-29T00:14:41;98397.50;;;16.38;100.00
71573;BME280;59408;51.032;9.410;2023-07-29T00:17:08;98397.09;;;16.40;100.00
71573;BME280;59408;51.032;9.410;2023-07-29T00:19:34;98386.09;;;16.40;100.00
71573;BME280;59408;51.032;9.410;2023-07-29T00:22:01;98389.25;;;16.38;100.00
71573;BME280;59408;51.032;9.410;2023-07-29T00:24:29;98394.75;;;16.38;100.00
71573;BME280;59408;51.032;9.410;2023-07-29T00:26:55;98389.25;;;16.42;100.00
71573;BME280;59408;51.032;9.410;2023-07-29T00:29:22;98383.72;;;16.42;100.00
71573;BME280;59408;51.032;9.410;2023-07-29T00:31:48;98387.69;;;16.44;100.00
71573;BME280;59408;51.032;9.410;2023-07-29T00:34:15;98380.59;;;16.43;100.00
71573;BME280;59408;51.032;9.410;2023-07-29T00:36:42;98382.16;;;16.44;100.00
71573;BME280;59408;51.032;9.410;2023-07-29T00:39:08;98392.38;;;16.44;100.00
71573;BME280;59408;51.032;9.410;2023-07-29T00:41:36;98379.00;;;16.42;100.00
71573;BME280;59408;51.032;9.410;2023-07-29T00:44:03;98377.44;;;16.41;100.00
71573;BME280;59408;51.032;9.410;2023-07-29T00:46:33;98385.31;;;16.39;100.00
71573;BME280;59408;51.032;9.410;2023-07-29T00:49:01;98370.34;;;16.40;100.00
71573;BME280;59408;51.032;9.410;2023-07-29T00:51:28;98369.19;;;16.45;100.00
71573;BME280;59408;51.032;9.410;2023-07-29T00:53:54;98368.81;;;16.46;100.00
71573;BME280;59408;51.032;9.410;2023-07-29T00:56:21;98364.88;;;16.44;100.00
71573;BME280;59408;51.032;9.410;2023-07-29T00:58:50;98354.66;;;16.48;100.00
71573;BME280;59408;51.032;9.410;2023-07-29T01:01:17;98352.69;;;16.45;100.00
71573;BME280;59408;51.032;9.410;2023-07-29T01:03:43;98353.06;;;16.47;100.00
71573;BME280;59408;51.032;9.410;2023-07-29T01:06:16;98343.22;;;16.56;100.00
71573;BME280;59408;51.032;9.410;2023-07-29T01:08:51;98343.22;;;16.53;100.00
71573;BME280;59408;51.032;9.410;2023-07-29T01:11:27;98344.78;;;16.50;100.00
71573;BME280;59408;51.032;9.410;2023-07-29T01:14:01;98353.06;;;16.47;100.00
71573;BME280;59408;51.032;9.410;2023-07-29T01:16:34;98353.84;;;16.47;100.00
71573;BME280;59408;51.032;9.410;2023-07-29T01:19:06;98351.88;;;16.44;100.00
71573;BME280;59408;51.032;9.410;2023-07-29T01:21:33;98358.16;;;16.48;100.00
71573;BME280;59408;51.032;9.410;2023-07-29T01:24:03;98358.16;;;16.48;100.00
71573;BME280;59408;51.032;9.410;2023-07-29T01:26:29;98364.84;;;16.51;100.00
71573;BME280;59408;51.032;9.410;2023-07-29T01:28:56;98357.78;;;16.50;100.00
71573;BME280;59408;51.032;9.410;2023-07-29T01:31:27;98359.38;;;16.47;100.00
71573;BME280;59408;51.032;9.410;2023-07-29T01:33:58;98364.44;;;16.49;100.00
71573;BME280;59408;51.032;9.410;2023-07-29T01:36:27;98367.22;;;16.49;100.00
71573;BME280;59408;51.032;9.410;2023-07-29T01:38:55;98368.41;;;16.48;100.00
71573;BME280;59408;51.032;9.410;2023-07-29T01:41:24;98365.63;;;16.51;100.00
71573;BME280;59408;51.032;9.410;2023-07-29T01:43:52;98362.13;;;16.47;100.00
71573;BME280;59408;51.032;9.410;2023-07-29T01:46:20;98361.31;;;16.43;100.00
71573;BME280;59408;51.032;9.410;2023-07-29T01:48:46;98366.03;;;16.43;100.00
71573;BME280;59408;51.032;9.410;2023-07-29T01:51:13;98366.81;;;16.43;100.00
71573;BME280;59408;51.032;9.410;2023-07-29T01:53:40;98359.34;;;16.44;100.00
71573;BME280;59408;51.032;9.410;2023-07-29T01:56:07;98357.41;;;16.44;100.00
71573;BME280;59408;51.032;9.410;2023-07-29T01:58:34;98355.81;;;16.47;100.00
71573;BME280;59408;51.032;9.410;2023-07-29T02:01:01;98344.81;;;16.47;100.00
71573;BME280;59408;51.032;9.410;2023-07-29T02:03:27;98339.69;;;16.45;100.00
71573;BME280;59408;51.032;9.410;2023-07-29T02:05:54;98340.88;;;16.44;100.00
71573;BME280;59408;51.032;9.410;2023-07-29T02:08:21;98341.66;;;16.45;100.00
71573;BME280;59408;51.032;9.410;2023-07-29T02:10:47;98332.63;;;16.48;100.00
71573;BME280;59408;51.032;9.410;2023-07-29T02:13:14;98334.59;;;16.47;100.00
71573;BME280;59408;51.032;9.410;2023-07-29T02:15:42;98337.72;;;16.46;100.00
71573;BME280;59408;51.032;9.410;2023-07-29T02:18:09;98323.16;;;16.42;100.00
71573;BME280;59408;51.032;9.410;2023-07-29T02:20:36;98318.06;;;16.37;100.00
71573;BME280;59408;51.032;9.410;2023-07-29T02:23:02;98318.84;;;16.34;100.00
71573;BME280;59408;51.032;9.410;2023-07-29T02:25:29;98311.78;;;16.33;100.00
71573;BME280;59408;51.032;9.410;2023-07-29T02:27:56;98304.69;;;16.32;100.00
71573;BME280;59408;51.032;9.410;2023-07-29T02:30:22;98309.03;;;16.33;100.00
71573;BME280;59408;51.032;9.410;2023-07-29T02:32:50;98304.69;;;16.32;100.00
71573;BME280;59408;51.032;9.410;2023-07-29T02:35:17;98307.84;;;16.27;100.00
71573;BME280;59408;51.032;9.410;2023-07-29T02:37:44;98310.59;;;16.23;100.00
71573;BME280;59408;51.032;9.410;2023-07-29T02:40:11;98309.03;;;16.18;100.00
71573;BME280;59408;51.032;9.410;2023-07-29T02:42:38;98303.91;;;16.13;100.00
71573;BME280;59408;51.032;9.410;2023-07-29T02:45:05;98294.09;;;16.16;100.00
71573;BME280;59408;51.032;9.410;2023-07-29T02:47:32;98297.63;;;16.16;100.00
71573;BME280;59408;51.032;9.410;2023-07-29T02:50:00;98280.75;;;16.11;100.00
71573;BME280;59408;51.032;9.410;2023-07-29T02:52:27;98286.25;;;16.11;100.00
71573;BME280;59408;51.032;9.410;2023-07-29T02:54:53;98287.03;;;16.11;100.00
71573;BME280;59408;51.032;9.410;2023-07-29T02:57:20;98281.91;;;16.13;100.00
71573;BME280;59408;51.032;9.410;2023-07-29T02:59:47;98282.31;;;16.15;100.00
71573;BME280;59408;51.032;9.410;2023-07-29T03:02:13;98279.56;;;16.15;100.00
71573;BME280;59408;51.032;9.410;2023-07-29T03:04:40;98270.91;;;16.13;100.00
71573;BME280;59408;51.032;9.410;2023-07-29T03:07:08;98277.19;;;16.14;100.00
71573;BME280;59408;51.032;9.410;2023-07-29T03:09:34;98277.19;;;16.14;100.00
71573;BME280;59408;51.032;9.410;2023-07-29T03:12:01;98269.31;;;16.12;100.00
71573;BME280;59408;51.032;9.410;2023-07-29T03:14:28;98269.72;;;16.14;100.00
71573;BME280;59408;51.032;9.410;2023-07-29T03:16:54;98272.09;;;16.16;100.00
71573;BME280;59408;51.032;9.410;2023-07-29T03:19:21;98265.81;;;16.15;100.00
71573;BME280;59408;51.032;9.410;2023-07-29T03:21:49;98265.81;;;16.19;100.00
71573;BME280;59408;51.032;9.410;2023-07-29T03:24:17;98268.56;;;16.19;100.00
71573;BME280;59408;51.032;9.410;2023-07-29T03:26:43;98266.59;;;16.19;100.00
71573;BME280;59408;51.032;9.410;2023-07-29T03:29:12;98275.25;;;16.18;100.00
71573;BME280;59408;51.032;9.410;2023-07-29T03:31:38;98283.09;;;16.19;100.00
71573;BME280;59408;51.032;9.410;2023-07-29T03:34:05;98277.59;;;16.19;100.00
71573;BME280;59408;51.032;9.410;2023-07-29T03:36:32;98267.78;;;16.18;100.00
71573;BME280;59408;51.032;9.410;2023-07-29T03:38:59;98269.34;;;16.19;100.00
71573;BME280;59408;51.032;9.410;2023-07-29T03:41:26;98272.09;;;16.19;100.00
71573;BME280;59408;51.032;9.410;2023-07-29T03:43:53;98274.03;;;16.26;100.00
71573;BME280;59408;51.032;9.410;2023-07-29T03:46:20;98265.00;;;16.33;100.00
71573;BME280;59408;51.032;9.410;2023-07-29T03:48:46;98258.31;;;16.37;100.00
71573;BME280;59408;51.032;9.410;2023-07-29T03:51:13;98267.72;;;16.40;100.00
71573;BME280;59408;51.032;9.410;2023-07-29T03:53:40;98259.06;;;16.45;100.00
71573;BME280;59408;51.032;9.410;2023-07-29T03:56:07;98255.94;;;16.46;100.00
71573;BME280;59408;51.032;9.410;2023-07-29T03:58:35;98264.56;;;16.52;100.00
71573;BME280;59408;51.032;9.410;2023-07-29T04:01:01;98252.75;;;16.51;100.00
71573;BME280;59408;51.032;9.410;2023-07-29T04:03:28;98245.69;;;16.50;100.00
71573;BME280;59408;51.032;9.410;2023-07-29T04:05:55;98249.97;;;16.58;100.00
71573;BME280;59408;51.032;9.410;2023-07-29T04:08:21;98244.50;;;16.62;100.00
71573;BME280;59408;51.032;9.410;2023-07-29T04:10:48;98243.31;;;16.63;100.00
71573;BME280;59408;51.032;9.410;2023-07-29T04:13:14;98233.88;;;16.64;100.00
71573;BME280;59408;51.032;9.410;2023-07-29T04:15:42;98236.25;;;16.66;100.00
71573;BME280;59408;51.032;9.410;2023-07-29T04:18:09;98235.44;;;16.69;100.00
71573;BME280;59408;51.032;9.410;2023-07-29T04:20:36;98235.44;;;16.69;100.00
71573;BME280;59408;51.032;9.410;2023-07-29T04:23:02;98238.97;;;16.69;100.00
71573;BME280;59408;51.032;9.410;2023-07-29T04:25:29;98237.78;;;16.70;100.00
71573;BME280;59408;51.032;9.410;2023-07-29T04:27:55;98229.50;;;16.77;100.00
71573;BME280;59408;51.032;9.410;2023-07-29T04:30:22;98235.78;;;16.81;100.00
71573;BME280;59408;51.032;9.410;2023-07-29T04:32:50;98230.28;;;16.81;100.00
71573;BME280;59408;51.032;9.410;2023-07-29T04:35:17;98245.22;;;16.84;100.00
71573;BME280;59408;51.032;9.410;2023-07-29T04:37:43;98233.78;;;16.85;100.00
71573;BME280;59408;51.032;9.410;2023-07-29T04:40:10;98237.31;;;16.86;100.00
71573;BME280;59408;51.032;9.410;2023-07-29T04:42:36;98234.97;;;16.88;100.00
71573;BME280;59408;51.032;9.410;2023-07-29T04:45:04;98230.59;;;16.94;100.00
71573;BME280;59408;51.032;9.410;2023-07-29T04:47:31;98225.47;;;17.00;100.00
71573;BME280;59408;51.032;9.410;2023-07-29T04:49:59;98232.16;;;17.02;100.00
71573;BME280;59408;51.032;9.410;2023-07-29T04:52:26;98223.06;;;17.05;100.00
71573;BME280;59408;51.032;9.410;2023-07-29T04:54:52;98214.78;;;17.09;100.00
71573;BME280;59408;51.032;9.410;2023-07-29T04:57:19;98219.53;;;17.08;100.00
71573;BME280;59408;51.032;9.410;2023-07-29T04:59:45;98230.16;;;17.10;100.00
71573;BME280;59408;51.032;9.410;2023-07-29T05:02:12;98230.09;;;17.17;100.00
71573;BME280;59408;51.032;9.410;2023-07-29T05:04:38;98232.47;;;17.18;100.00
71573;BME280;59408;51.032;9.410;2023-07-29T05:07:07;98228.09;;;17.21;100.00
71573;BME280;59408;51.032;9.410;2023-07-29T05:09:33;98225.31;;;17.24;100.00
71573;BME280;59408;51.032;9.410;2023-07-29T05:12:00;98228.47;;;17.23;100.00
71573;BME280;59408;51.032;9.410;2023-07-29T05:14:27;98234.38;;;17.25;100.00
71573;BME280;59408;51.032;9.410;2023-07-29T05:16:53;98230.84;;;17.24;100.00
71573;BME280;59408;51.032;9.410;2023-07-29T05:19:20;98233.97;;;17.26;100.00
71573;BME280;59408;51.032;9.410;2023-07-29T05:21:46;98227.69;;;17.29;100.00
71573;BME280;59408;51.032;9.410;2023-07-29T05:24:14;98235.16;;;17.29;100.00
71573;BME280;59408;51.032;9.410;2023-07-29T05:26:41;98231.56;;;17.32;100.00
71573;BME280;59408;51.032;9.410;2023-07-29T05:29:07;98228.03;;;17.31;100.00
71573;BME280;59408;51.032;9.410;2023-07-29T05:31:34;98214.63;;;17.37;100.00
71573;BME280;59408;51.032;9.410;2023-07-29T05:34:00;98215.34;;;17.45;100.00
71573;BME280;59408;51.032;9.410;2023-07-29T05:36:27;98210.22;;;17.47;100.00
71573;BME280;59408;51.032;9.410;2023-07-29T05:38:54;98213.78;;;17.47;100.00
71573;BME280;59408;51.032;9.410;2023-07-29T05:41:22;98221.22;;;17.50;100.00
71573;BME280;59408;51.032;9.410;2023-07-29T05:43:48;98215.69;;;17.57;100.00
71573;BME280;59408;51.032;9.410;2023-07-29T05:46:15;98216.38;;;17.68;100.00
71573;BME280;59408;51.032;9.410;2023-07-29T05:48:41;98216.72;;;17.78;100.00
71573;BME280;59408;51.032;9.410;2023-07-29T05:51:08;98211.50;;;17.87;100.00
71573;BME280;59408;51.032;9.410;2023-07-29T05:53:35;98218.91;;;17.97;100.00
71573;BME280;59408;51.032;9.410;2023-07-29T05:56:01;98225.69;;;17.89;100.00
71573;BME280;59408;51.032;9.410;2023-07-29T05:58:29;98219.44;;;17.81;100.00
71573;BME280;59408;51.032;9.410;2023-07-29T06:00:56;98221.84;;;17.76;100.00
71573;BME280;59408;51.032;9.410;2023-07-29T06:03:23;98227.00;;;17.74;100.00
71573;BME280;59408;51.032;9.410;2023-07-29T06:05:49;98223.06;;;17.71;100.00
71573;BME280;59408;51.032;9.410;2023-07-29T06:08:20;98231.41;;;17.64;100.00
71573;BME280;59408;51.032;9.410;2023-07-29T06:10:46;98233.38;;;17.63;100.00
71573;BME280;59408;51.032;9.410;2023-07-29T06:13:13;98233.72;;;17.69;100.00
71573;BME280;59408;51.032;9.410;2023-07-29T06:15:41;98233.25;;;17.78;100.00
71573;BME280;59408;51.032;9.410;2023-07-29T06:18:08;98236.00;;;17.81;100.00
71573;BME280;59408;51.032;9.410;2023-07-29T06:20:34;98237.56;;;17.82;100.00
71573;BME280;59408;51.032;9.410;2023-07-29T06:23:01;98239.94;;;17.80;100.00
71573;BME280;59408;51.032;9.410;2023-07-29T06:25:28;98240.34;;;17.79;100.00
71573;BME280;59408;51.032;9.410;2023-07-29T06:27:54;98237.66;;;17.72;100.00
71573;BME280;59408;51.032;9.410;2023-07-29T06:30:21;98247.13;;;17.67;100.00
71573;BME280;59408;51.032;9.410;2023-07-29T06:32:49;98242.03;;;17.65;100.00
71573;BME280;59408;51.032;9.410;2023-07-29T06:35:15;98237.63;;;17.75;100.00
71573;BME280;59408;51.032;9.410;2023-07-29T06:37:42;98250.91;;;17.87;100.00
71573;BME280;59408;51.032;9.410;2023-07-29T06:40:09;98245.34;;;17.94;100.00
71573;BME280;59408;51.032;9.410;2023-07-29T06:42:36;98242.94;;;18.00;100.00
71573;BME280;59408;51.032;9.410;2023-07-29T06:45:04;98248.00;;;18.05;100.00
71573;BME280;59408;51.032;9.410;2023-07-29T06:47:31;98245.16;;;18.16;100.00
71573;BME280;59408;51.032;9.410;2023-07-29T06:49:59;98256.19;;;18.19;100.00
71573;BME280;59408;51.032;9.410;2023-07-29T06:52:25;98259.28;;;18.21;100.00
71573;BME280;59408;51.032;9.410;2023-07-29T06:54:52;98250.13;;;18.31;100.00
71573;BME280;59408;51.032;9.410;2023-07-29T06:57:19;98254.47;;;18.32;100.00
71573;BME280;59408;51.032;9.410;2023-07-29T06:59:45;98247.72;;;18.37;100.00
71573;BME280;59408;51.032;9.410;2023-07-29T07:02:12;98243.81;;;18.31;100.00
71573;BME280;59408;51.032;9.410;2023-07-29T07:04:38;98250.19;;;18.28;100.00
71573;BME280;59408;51.032;9.410;2023-07-29T07:07:07;98247.09;;;18.19;100.00
71573;BME280;59408;51.032;9.410;2023-07-29T07:09:33;98250.69;;;18.12;100.00
71573;BME280;59408;51.032;9.410;2023-07-29T07:12:00;98255.88;;;18.10;100.00
71573;BME280;59408;51.032;9.410;2023-07-29T07:14:26;98254.22;;;18.16;100.00
71573;BME280;59408;51.032;9.410;2023-07-29T07:16:53;98249.00;;;18.25;100.00
71573;BME280;59408;51.032;9.410;2023-07-29T07:19:19;98257.56;;;18.38;100.00
71573;BME280;59408;51.032;9.410;2023-07-29T07:21:46;98265.88;;;18.34;100.00
71573;BME280;59408;51.032;9.410;2023-07-29T07:24:14;98260.84;;;18.26;100.00
71573;BME280;59408;51.032;9.410;2023-07-29T07:26:40;98259.72;;;18.20;100.00
71573;BME280;59408;51.032;9.410;2023-07-29T07:29:07;98266.06;;;18.17;100.00
71573;BME280;59408;51.032;9.410;2023-07-29T07:31:34;98266.03;;;18.20;100.00
71573;BME280;59408;51.032;9.410;2023-07-29T07:34:00;98262.47;;;18.20;100.00
71573;BME280;59408;51.032;9.410;2023-07-29T07:36:27;98260.03;;;18.29;100.00
71573;BME280;59408;51.032;9.410;2023-07-29T07:38:54;98260.28;;;18.41;100.00
71573;BME280;59408;51.032;9.410;2023-07-29T07:41:21;98265.78;;;18.45;100.00
71573;BME280;59408;51.032;9.410;2023-07-29T07:43:48;98261.03;;;18.49;100.00
71573;BME280;59408;51.032;9.410;2023-07-29T07:46:15;98259.84;;;18.47;100.00
71573;BME280;59408;51.032;9.410;2023-07-29T07:48:41;98259.84;;;18.50;100.00
71573;BME280;59408;51.032;9.410;2023-07-29T07:51:11;98261.03;;;18.49;100.00
71573;BME280;59408;51.032;9.410;2023-07-29T07:53:38;98267.34;;;18.50;100.00
71573;BME280;59408;51.032;9.410;2023-07-29T07:56:05;98263.41;;;18.47;100.00
71573;BME280;59408;51.032;9.410;2023-07-29T07:58:33;98254.34;;;18.43;100.00
71573;BME280;59408;51.032;9.410;2023-07-29T08:01:02;98256.38;;;18.39;100.00
71573;BME280;59408;51.032;9.410;2023-07-29T08:03:29;98244.59;;;18.35;100.00
71573;BME280;59408;51.032;9.410;2023-07-29T08:05:56;98250.91;;;18.32;100.00
71573;BME280;59408;51.032;9.410;2023-07-29T08:08:22;98251.31;;;18.30;100.00
71573;BME280;59408;51.032;9.410;2023-07-29T08:10:49;98261.16;;;18.35;100.00
71573;BME280;59408;51.032;9.410;2023-07-29T08:13:15;98268.56;;;18.41;100.00
71573;BME280;59408;51.032;9.410;2023-07-29T08:15:47;98272.88;;;18.46;100.00
71573;BME280;59408;51.032;9.410;2023-07-29T08:18:14;98260.63;;;18.47;100.00
71573;BME280;59408;51.032;9.410;2023-07-29T08:20:40;98257.09;;;18.47;100.00
71573;BME280;59408;51.032;9.410;2023-07-29T08:23:07;98266.53;;;18.53;100.00
71573;BME280;59408;51.032;9.410;2023-07-29T08:25:33;98272.81;;;18.53;100.00
71573;BME280;59408;51.032;9.410;2023-07-29T08:28:00;98271.22;;;18.56;100.00
71573;BME280;59408;51.032;9.410;2023-07-29T08:30:26;98267.63;;;18.59;100.00
71573;BME280;59408;51.032;9.410;2023-07-29T08:32:54;98265.31;;;18.54;100.00
71573;BME280;59408;51.032;9.410;2023-07-29T08:35:21;98268.78;;;18.65;100.00
71573;BME280;59408;51.032;9.410;2023-07-29T08:37:47;98265.09;;;18.75;100.00
71573;BME280;59408;51.032;9.410;2023-07-29T08:40:14;98276.00;;;18.86;100.00
71573;BME280;59408;51.032;9.410;2023-07-29T08:42:41;98279.16;;;18.88;100.00
71573;BME280;59408;51.032;9.410;2023-07-29T08:45:09;98294.28;;;18.76;100.00
71573;BME280;59408;51.032;9.410;2023-07-29T08:47:36;98288.84;;;18.69;100.00
71573;BME280;59408;51.032;9.410;2023-07-29T08:50:06;98284.44;;;18.75;100.00
71573;BME280;59408;51.032;9.410;2023-07-29T08:52:33;98273.03;;;18.69;100.00
71573;BME280;59408;51.032;9.410;2023-07-29T08:55:00;98268.34;;;19.00;100.00
71573;BME280;59408;51.032;9.410;2023-07-29T08:57:27;98276.63;;;19.34;100.00
71573;BME280;59408;51.032;9.410;2023-07-29T08:59:55;98282.44;;;19.70;100.00
71573;BME280;59408;51.032;9.410;2023-07-29T09:02:23;98284.03;;;19.95;100.00
71573;BME280;59408;51.032;9.410;2023-07-29T09:04:50;98281.78;;;20.36;98.61
71573;BME280;59408;51.032;9.410;2023-07-29T09:07:18;98289.13;;;20.46;97.82
71573;BME280;59408;51.032;9.410;2023-07-29T09:09:45;98287.88;;;20.71;95.85
71573;BME280;59408;51.032;9.410;2023-07-29T09:12:12;98283.28;;;20.84;92.47
71573;BME280;59408;51.032;9.410;2023-07-29T09:14:38;98284.56;;;21.38;93.17
71573;BME280;59408;51.032;9.410;2023-07-29T09:17:07;98277.69;;;21.63;90.12
71573;BME280;59408;51.032;9.410;2023-07-29T09:19:34;98277.88;;;21.72;85.69
71573;BME280;59408;51.032;9.410;2023-07-29T09:22:00;98267.66;;;21.49;85.79
71573;BME280;59408;51.032;9.410;2023-07-29T09:24:28;98279.06;;;21.71;89.43
71573;BME280;59408;51.032;9.410;2023-07-29T09:26:55;98290.50;;;22.09;87.24
71573;BME280;59408;51.032;9.410;2023-07-29T09:29:22;98288.31;;;22.33;84.58
71573;BME280;59408;51.032;9.410;2023-07-29T09:31:49;98267.16;;;22.68;80.41
71573;BME280;59408;51.032;9.410;2023-07-29T09:34:16;98272.00;;;22.80;79.06
71573;BME280;59408;51.032;9.410;2023-07-29T09:36:43;98263.38;;;22.45;78.41
71573;BME280;59408;51.032;9.410;2023-07-29T09:39:11;98266.63;;;22.28;81.27
71573;BME280;59408;51.032;9.410;2023-07-29T09:41:39;98264.50;;;22.64;79.40
71573;BME280;59408;51.032;9.410;2023-07-29T09:44:06;98260.34;;;22.56;76.04
71573;BME280;59408;51.032;9.410;2023-07-29T09:46:35;98262.09;;;22.79;78.57
71573;BME280;59408;51.032;9.410;2023-07-29T09:49:03;98254.38;;;22.99;73.94
71573;BME280;59408;51.032;9.410;2023-07-29T09:51:30;98245.94;;;23.15;71.84
71573;BME280;59408;51.032;9.410;2023-07-29T09:53:57;98261.28;;;22.66;73.61
71573;BME280;59408;51.032;9.410;2023-07-29T09:56:25;98247.28;;;23.11;75.45
71573;BME280;59408;51.032;9.410;2023-07-29T09:58:55;98249.91;;;22.89;73.42
71573;BME280;59408;51.032;9.410;2023-07-29T10:01:22;98251.31;;;23.22;73.42
71573;BME280;59408;51.032;9.410;2023-07-29T10:03:49;98265.06;;;23.30;70.43
71573;BME280;59408;51.032;9.410;2023-07-29T10:06:17;98260.94;;;23.05;71.49
71573;BME280;59408;51.032;9.410;2023-07-29T10:08:44;98269.75;;;23.45;73.03
71573;BME280;59408;51.032;9.410;2023-07-29T10:11:11;98261.63;;;23.76;68.10
71573;BME280;59408;51.032;9.410;2023-07-29T10:13:38;98271.16;;;23.24;69.39
71573;BME280;59408;51.032;9.410;2023-07-29T10:16:06;98263.44;;;22.74;72.45
71573;BME280;59408;51.032;9.410;2023-07-29T10:18:33;98262.69;;;22.41;72.57
71573;BME280;59408;51.032;9.410;2023-07-29T10:21:01;98257.47;;;22.43;73.07
71573;BME280;59408;51.032;9.410;2023-07-29T10:23:32;98258.25;;;22.60;74.50
71573;BME280;59408;51.032;9.410;2023-07-29T10:26:02;98254.53;;;22.79;72.18
71573;BME280;59408;51.032;9.410;2023-07-29T10:28:30;98253.41;;;23.18;70.73
71573;BME280;59408;51.032;9.410;2023-07-29T10:30:57;98260.50;;;23.07;67.84
71573;BME280;59408;51.032;9.410;2023-07-29T10:33:25;98252.31;;;22.87;68.54
71573;BME280;59408;51.032;9.410;2023-07-29T10:35:53;98247.91;;;22.61;67.44
71573;BME280;59408;51.032;9.410;2023-07-29T10:38:21;98242.88;;;22.84;68.46
71573;BME280;59408;51.032;9.410;2023-07-29T10:40:51;98246.34;;;22.88;69.05
71573;BME280;59408;51.032;9.410;2023-07-29T10:43:19;98245.81;;;22.65;69.69
71573;BME280;59408;51.032;9.410;2023-07-29T10:45:50;98255.22;;;22.55;69.42
71573;BME280;59408;51.032;9.410;2023-07-29T10:48:44;98240.66;;;22.18;70.29
71573;BME280;59408;51.032;9.410;2023-07-29T10:51:25;98236.84;;;22.28;70.69
71573;BME280;59408;51.032;9.410;2023-07-29T10:53:53;98238.25;;;22.65;71.69
71573;BME280;59408;51.032;9.410;2023-07-29T10:56:28;98236.44;;;22.42;69.86
71573;BME280;59408;51.032;9.410;2023-07-29T10:58:57;98224.28;;;22.53;70.89
71573;BME280;59408;51.032;9.410;2023-07-29T11:01:27;98229.69;;;23.01;69.37
71573;BME280;59408;51.032;9.410;2023-07-29T11:04:24;98229.75;;;23.27;67.77
71573;BME280;59408;51.032;9.410;2023-07-29T11:10:00;98226.28;;;23.22;65.98
71573;BME280;59408;51.032;9.410;2023-07-29T11:12:44;98230.22;;;23.38;66.11
71573;BME280;59408;51.032;9.410;2023-07-29T11:15:16;98233.66;;;23.54;65.92
71573;BME280;59408;51.032;9.410;2023-07-29T11:17:45;98237.53;;;23.32;63.29
71573;BME280;59408;51.032;9.410;2023-07-29T11:20:14;98234.59;;;23.10;63.15
71573;BME280;59408;51.032;9.410;2023-07-29T11:22:41;98227.06;;;23.23;60.96
71573;BME280;59408;51.032;9.410;2023-07-29T11:25:09;98223.84;;;23.24;62.66
71573;BME280;59408;51.032;9.410;2023-07-29T11:27:36;98237.50;;;23.19;65.03
71573;BME280;59408;51.032;9.410;2023-07-29T11:30:05;98241.22;;;22.87;67.23
71573;BME280;59408;51.032;9.410;2023-07-29T11:32:32;98247.06;;;22.47;67.25
71573;BME280;59408;51.032;9.410;2023-07-29T11:35:03;98233.00;;;22.38;69.34
71573;BME280;59408;51.032;9.410;2023-07-29T11:37:32;98237.88;;;22.18;69.84
71573;BME280;59408;51.032;9.410;2023-07-29T11:39:59;98244.09;;;21.93;69.52
71573;BME280;59408;51.032;9.410;2023-07-29T11:42:26;98239.81;;;21.89;69.17
71573;BME280;59408;51.032;9.410;2023-07-29T11:44:53;98246.22;;;21.86;67.99
71573;BME280;59408;51.032;9.410;2023-07-29T11:47:22;98247.69;;;21.74;68.80
71573;BME280;59408;51.032;9.410;2023-07-29T11:49:49;98248.81;;;21.76;68.21
71573;BME280;59408;51.032;9.410;2023-07-29T11:52:15;98249.19;;;21.79;69.21
71573;BME280;59408;51.032;9.410;2023-07-29T11:54:43;98247.28;;;21.75;69.50
71573;BME280;59408;51.032;9.410;2023-07-29T11:57:10;98250.47;;;21.74;70.47
71573;BME280;59408;51.032;9.410;2023-07-29T11:59:37;98253.25;;;21.74;70.10
71573;BME280;59408;51.032;9.410;2023-07-29T12:02:08;98265.19;;;21.71;72.55
71573;BME280;59408;51.032;9.410;2023-07-29T12:04:36;98268.75;;;21.55;71.52
71573;BME280;59408;51.032;9.410;2023-07-29T12:07:04;98272.34;;;21.36;72.04
71573;BME280;59408;51.032;9.410;2023-07-29T12:09:31;98264.06;;;21.32;72.27
71573;BME280;59408;51.032;9.410;2023-07-29T12:12:00;98271.31;;;21.46;73.72
71573;BME280;59408;51.032;9.410;2023-07-29T12:14:28;98279.72;;;21.43;74.54
71573;BME280;59408;51.032;9.410;2023-07-29T12:16:55;98287.78;;;21.37;76.83
71573;BME280;59408;51.032;9.410;2023-07-29T12:19:21;98291.13;;;21.28;77.90
71573;BME280;59408;51.032;9.410;2023-07-29T12:21:48;98302.91;;;20.93;81.11
71573;BME280;59408;51.032;9.410;2023-07-29T12:24:15;98295.81;;;20.49;84.69
71573;BME280;59408;51.032;9.410;2023-07-29T12:26:41;98296.75;;;20.15;84.26
71573;BME280;59408;51.032;9.410;2023-07-29T12:29:13;98298.66;;;19.95;86.63
71573;BME280;59408;51.032;9.410;2023-07-29T12:31:40;98295.59;;;19.89;89.21
71573;BME280;59408;51.032;9.410;2023-07-29T12:34:07;98302.53;;;20.01;90.09
71573;BME280;59408;51.032;9.410;2023-07-29T12:36:45;98317.81;;;20.09;91.75
71573;BME280;59408;51.032;9.410;2023-07-29T12:39:17;98316.22;;;19.85;89.14
71573;BME280;59408;51.032;9.410;2023-07-29T12:41:44;98313.41;;;19.62;90.37
71573;BME280;59408;51.032;9.410;2023-07-29T12:44:12;98317.06;;;19.55;91.20
71573;BME280;59408;51.032;9.410;2023-07-29T12:46:42;98317.59;;;19.43;91.33
71573;BME280;59408;51.032;9.410;2023-07-29T12:49:09;98319.22;;;19.40;93.06
71573;BME280;59408;51.032;9.410;2023-07-29T12:51:36;98328.22;;;19.48;94.02
71573;BME280;59408;51.032;9.410;2023-07-29T12:54:03;98329.75;;;19.49;92.37
71573;BME280;59408;51.032;9.410;2023-07-29T12:56:29;98327.16;;;19.38;94.01